createdAt,value
2022-10-30T00:01:42.034Z,100.00
2022-10-30T00:04:08.576Z,100.00
2022-10-30T00:06:35.117Z,100.00
2022-10-30T00:09:03.007Z,100.00
2022-10-30T00:11:29.533Z,100.00
2022-10-30T00:13:56.250Z,100.00
2022-10-30T00:16:22.777Z,100.00
2022-10-30T00:18:49.287Z,100.00
2022-10-30T00:21:16.057Z,100.00
2022-10-30T00:23:45.892Z,100.00
2022-10-30T00:26:14.522Z,100.00
2022-10-30T00:28:41.048Z,100.00
2022-10-30T00:31:07.684Z,100.00
2022-10-30T00:33:34.325Z,100.00
2022-10-30T00:36:01.079Z,100.00
2022-10-30T00:38:27.659Z,100.00
2022-10-30T00:40:54.167Z,100.00
2022-10-30T00:43:30.841Z,100.00
2022-10-30T00:45:59.881Z,100.00
2022-10-30T00:48:26.686Z,100.00
2022-10-30T00:50:54.270Z,100.00
2022-10-30T00:53:21.942Z,100.00
2022-10-30T00:55:52.303Z,100.00
2022-10-30T00:58:24.094Z,100.00
2022-10-30T01:00:54.854Z,100.00
2022-10-30T01:03:23.541Z,100.00
2022-10-30T01:05:54.865Z,100.00
2022-10-30T01:08:21.439Z,100.00
2022-10-30T01:10:48.284Z,100.00
2022-10-30T01:13:16.087Z,100.00
2022-10-30T01:15:53.374Z,100.00
2022-10-30T01:18:34.954Z,100.00
2022-10-30T01:21:14.854Z,100.00
2022-10-30T01:23:53.708Z,100.00
2022-10-30T01:26:32.277Z,100.00
2022-10-30T01:29:12.611Z,100.00
2022-10-30T01:31:50.674Z,100.00
2022-10-30T01:34:21.215Z,100.00
2022-10-30T01:36:54.994Z,100.00
2022-10-30T01:39:24.231Z,100.00
2022-10-30T01:41:50.962Z,100.00
2022-10-30T01:44:20.791Z,100.00
2022-10-30T01:47:02.237Z,100.00
2022-10-30T01:50:13.055Z,100.00
2022-10-30T01:52:47.460Z,100.00
2022-10-30T01:55:32.505Z,100.00
2022-10-30T01:58:05.967Z,100.00
2022-10-30T02:00:32.586Z,100.00
2022-10-30T02:02:59.736Z,100.00
2022-10-30T02:05:36.379Z,100.00
2022-10-30T02:08:03.018Z,100.00
2022-10-30T02:10:31.415Z,100.00
2022-10-30T02:12:57.930Z,100.00
2022-10-30T02:15:24.573Z,100.00
2022-10-30T02:17:51.170Z,100.00
2022-10-30T02:20:19.797Z,100.00
2022-10-30T02:22:46.555Z,100.00
2022-10-30T02:25:13.966Z,100.00
2022-10-30T02:27:40.670Z,100.00
2022-10-30T02:30:08.911Z,100.00
2022-10-30T02:32:35.635Z,100.00
2022-10-30T02:35:02.785Z,100.00
2022-10-30T02:37:30.710Z,100.00
2022-10-30T02:39:57.205Z,100.00
2022-10-30T02:42:23.737Z,100.00
2022-10-30T02:44:50.244Z,100.00
2022-10-30T02:47:16.880Z,100.00
2022-10-30T02:49:44.541Z,100.00
2022-10-30T02:52:11.270Z,100.00
2022-10-30T02:54:39.145Z,100.00
2022-10-30T02:57:05.768Z,100.00
2022-10-30T02:59:32.287Z,100.00
2022-10-30T03:01:58.855Z,100.00
2022-10-30T03:04:25.539Z,100.00
2022-10-30T03:06:52.149Z,100.00
2022-10-30T03:09:18.677Z,100.00
2022-10-30T03:11:46.953Z,100.00
2022-10-30T03:14:13.768Z,100.00
2022-10-30T03:16:40.405Z,100.00
2022-10-30T03:19:06.902Z,100.00
2022-10-30T03:21:33.589Z,100.00
2022-10-30T03:24:00.199Z,100.00
2022-10-30T03:26:26.785Z,100.00
2022-10-30T03:28:54.625Z,100.00
2022-10-30T03:31:21.579Z,100.00
2022-10-30T03:33:48.082Z,100.00
2022-10-30T03:36:15.026Z,100.00
2022-10-30T03:38:42.270Z,100.00
2022-10-30T03:41:09.023Z,100.00
2022-10-30T03:43:35.674Z,100.00
2022-10-30T03:46:03.706Z,100.00
2022-10-30T03:48:30.370Z,100.00
2022-10-30T03:50:58.412Z,100.00
2022-10-30T03:53:25.826Z,100.00
2022-10-30T03:55:53.279Z,100.00
2022-10-30T03:58:19.851Z,100.00
2022-10-30T04:00:46.555Z,100.00
2022-10-30T04:03:14.543Z,100.00
2022-10-30T04:05:41.202Z,100.00
2022-10-30T04:08:12.208Z,100.00
2022-10-30T04:10:42.652Z,100.00
2022-10-30T04:13:10.477Z,100.00
2022-10-30T04:15:37.070Z,100.00
2022-10-30T04:18:03.778Z,100.00
2022-10-30T04:20:31.819Z,100.00
2022-10-30T04:22:59.834Z,100.00
2022-10-30T04:25:27.119Z,100.00
2022-10-30T04:27:53.639Z,100.00
2022-10-30T04:30:21.702Z,100.00
2022-10-30T04:32:48.874Z,100.00
2022-10-30T04:35:16.327Z,100.00
2022-10-30T04:37:52.186Z,100.00
2022-10-30T04:40:18.706Z,100.00
2022-10-30T04:42:47.005Z,100.00
2022-10-30T04:45:15.255Z,100.00
2022-10-30T04:47:42.155Z,100.00
2022-10-30T04:50:09.611Z,100.00
2022-10-30T04:52:36.709Z,100.00
2022-10-30T04:55:05.864Z,100.00
2022-10-30T04:57:32.394Z,100.00
2022-10-30T04:59:59.016Z,100.00
2022-10-30T05:02:26.118Z,100.00
2022-10-30T05:04:52.763Z,100.00
2022-10-30T05:07:19.279Z,100.00
2022-10-30T05:09:45.896Z,100.00
2022-10-30T05:12:13.819Z,100.00
2022-10-30T05:14:40.474Z,100.00
2022-10-30T05:17:07.111Z,100.00
2022-10-30T05:19:33.659Z,100.00
2022-10-30T05:22:00.188Z,100.00
2022-10-30T05:24:26.690Z,100.00
2022-10-30T05:26:53.242Z,100.00
2022-10-30T05:29:21.104Z,100.00
2022-10-30T05:31:47.645Z,100.00
2022-10-30T05:34:14.423Z,100.00
2022-10-30T05:36:40.943Z,100.00
2022-10-30T05:39:07.578Z,100.00
2022-10-30T05:41:34.168Z,100.00
2022-10-30T05:44:00.730Z,100.00
2022-10-30T05:46:28.572Z,100.00
2022-10-30T05:48:55.118Z,100.00
2022-10-30T05:51:21.642Z,100.00
2022-10-30T05:53:48.290Z,100.00
2022-10-30T05:56:14.830Z,100.00
2022-10-30T05:58:41.434Z,100.00
2022-10-30T06:01:08.797Z,100.00
2022-10-30T06:03:36.641Z,100.00
2022-10-30T06:06:03.399Z,100.00
2022-10-30T06:08:29.904Z,100.00
2022-10-30T06:10:56.519Z,100.00
2022-10-30T06:13:23.050Z,100.00
2022-10-30T06:15:49.582Z,100.00
2022-10-30T06:18:16.231Z,100.00
2022-10-30T06:20:44.081Z,100.00
2022-10-30T06:23:10.962Z,100.00
2022-10-30T06:25:41.511Z,100.00
2022-10-30T06:28:10.098Z,100.00
2022-10-30T06:30:36.765Z,100.00
2022-10-30T06:33:05.351Z,100.00
2022-10-30T06:35:32.469Z,100.00
2022-10-30T06:38:00.529Z,100.00
2022-10-30T06:40:27.981Z,100.00
2022-10-30T06:42:54.689Z,100.00
2022-10-30T06:45:23.469Z,100.00
2022-10-30T06:47:50.290Z,100.00
2022-10-30T06:50:19.439Z,100.00
2022-10-30T06:52:46.440Z,100.00
2022-10-30T06:55:14.322Z,100.00
2022-10-30T06:57:41.226Z,100.00
2022-10-30T07:00:09.192Z,100.00
2022-10-30T07:02:35.798Z,100.00
2022-10-30T07:05:02.300Z,100.00
2022-10-30T07:07:28.996Z,100.00
2022-10-30T07:09:55.646Z,100.00
2022-10-30T07:12:23.576Z,100.00
2022-10-30T07:14:50.122Z,100.00
2022-10-30T07:17:16.643Z,100.00
2022-10-30T07:19:43.197Z,100.00
2022-10-30T07:22:09.715Z,100.00
2022-10-30T07:24:36.257Z,100.00
2022-10-30T07:27:02.822Z,100.00
2022-10-30T07:29:30.656Z,100.00
2022-10-30T07:32:02.927Z,100.00
2022-10-30T07:34:30.044Z,100.00
2022-10-30T07:36:56.566Z,100.00
2022-10-30T07:39:23.279Z,100.00
2022-10-30T07:41:50.282Z,100.00
2022-10-30T07:44:17.064Z,100.00
2022-10-30T07:46:45.074Z,100.00
2022-10-30T07:49:11.593Z,100.00
2022-10-30T07:51:38.250Z,100.00
2022-10-30T07:54:04.849Z,100.00
2022-10-30T07:56:31.350Z,100.00
2022-10-30T07:58:57.879Z,100.00
2022-10-30T08:01:24.557Z,100.00
2022-10-30T08:03:52.526Z,100.00
2022-10-30T08:06:21.639Z,100.00
2022-10-30T08:08:51.247Z,100.00
2022-10-30T08:11:17.794Z,100.00
2022-10-30T08:13:44.315Z,100.00
2022-10-30T08:16:10.843Z,100.00
2022-10-30T08:18:37.369Z,100.00
2022-10-30T08:21:05.831Z,100.00
2022-10-30T08:23:32.378Z,100.00
2022-10-30T08:25:59.105Z,100.00
2022-10-30T08:28:29.875Z,100.00
2022-10-30T08:31:00.254Z,100.00
2022-10-30T08:33:26.815Z,100.00
2022-10-30T08:35:55.502Z,100.00
2022-10-30T08:38:24.391Z,100.00
2022-10-30T08:40:51.276Z,100.00
2022-10-30T08:43:18.693Z,100.00
2022-10-30T08:45:45.270Z,100.00
2022-10-30T08:48:16.624Z,99.95
2022-10-30T08:50:44.030Z,99.24
2022-10-30T08:53:14.300Z,98.16
2022-10-30T08:55:42.686Z,98.30
2022-10-30T08:58:09.206Z,97.85
2022-10-30T09:00:35.922Z,97.47
2022-10-30T09:03:03.235Z,96.59
2022-10-30T09:05:30.247Z,96.94
2022-10-30T09:07:57.513Z,95.96
2022-10-30T09:10:24.433Z,95.50
2022-10-30T09:12:55.515Z,95.04
2022-10-30T09:15:22.055Z,92.36
2022-10-30T09:17:48.593Z,92.39
2022-10-30T09:20:15.473Z,90.25
2022-10-30T09:22:42.079Z,89.82
2022-10-30T09:25:09.472Z,88.63
2022-10-30T09:27:37.818Z,87.96
2022-10-30T09:30:07.229Z,86.41
2022-10-30T09:32:33.782Z,85.53
2022-10-30T09:35:00.443Z,83.61
2022-10-30T09:37:27.068Z,82.22
2022-10-30T09:39:53.637Z,81.46
2022-10-30T09:42:40.549Z,80.32
2022-10-30T09:45:30.334Z,78.66
2022-10-30T09:48:18.105Z,79.91
2022-10-30T09:50:53.065Z,78.64
2022-10-30T09:53:26.681Z,76.63
2022-10-30T09:56:04.625Z,77.09
2022-10-30T09:58:46.935Z,76.66
2022-10-30T10:01:19.557Z,75.57
2022-10-30T10:03:58.223Z,75.39
2022-10-30T10:06:25.826Z,73.73
2022-10-30T10:08:56.592Z,73.96
2022-10-30T10:11:26.962Z,74.30
2022-10-30T10:13:57.654Z,73.97
2022-10-30T10:16:29.155Z,73.58
2022-10-30T10:19:00.724Z,73.80
2022-10-30T10:21:29.754Z,73.09
2022-10-30T10:23:59.293Z,73.48
2022-10-30T10:26:37.157Z,73.86
2022-10-30T10:29:20.691Z,73.32
2022-10-30T10:32:03.232Z,73.07
2022-10-30T10:34:47.765Z,72.73
2022-10-30T10:37:26.223Z,72.89
2022-10-30T10:40:10.431Z,73.66
2022-10-30T10:42:49.054Z,75.11
2022-10-30T10:45:27.402Z,73.49
2022-10-30T10:48:26.160Z,71.21
2022-10-30T10:50:58.348Z,71.11
2022-10-30T10:53:30.520Z,70.39
2022-10-30T10:55:59.806Z,70.08
2022-10-30T10:58:30.971Z,66.77
2022-10-30T11:00:59.330Z,67.73
2022-10-30T11:03:45.919Z,66.60
2022-10-30T11:06:20.079Z,66.13
2022-10-30T11:08:47.652Z,65.16
2022-10-30T11:11:14.431Z,65.04
2022-10-30T11:13:43.353Z,64.60
2022-10-30T11:16:22.310Z,66.43
2022-10-30T11:18:55.695Z,63.56
2022-10-30T11:21:24.120Z,63.85
2022-10-30T11:23:51.583Z,62.48
2022-10-30T11:26:33.525Z,61.17
2022-10-30T11:29:05.614Z,61.54
2022-10-30T11:31:33.435Z,61.33
2022-10-30T11:34:14.196Z,60.30
2022-10-30T11:36:40.921Z,59.84
2022-10-30T11:39:10.371Z,60.53
2022-10-30T11:41:37.993Z,60.63
2022-10-30T11:44:05.663Z,60.95
2022-10-30T11:46:35.299Z,61.30
2022-10-30T11:49:03.274Z,60.29
2022-10-30T11:51:33.662Z,59.42
2022-10-30T11:54:01.317Z,58.94
2022-10-30T11:56:28.496Z,59.20
2022-10-30T11:58:58.030Z,59.41
2022-10-30T12:01:26.421Z,58.33
2022-10-30T12:03:54.701Z,59.18
2022-10-30T12:06:28.655Z,59.92
2022-10-30T12:08:59.821Z,59.58
2022-10-30T12:11:29.789Z,60.81
2022-10-30T12:13:57.316Z,59.31
2022-10-30T12:16:24.229Z,61.25
2022-10-30T12:19:01.337Z,60.14
2022-10-30T12:21:34.796Z,62.13
2022-10-30T12:24:04.097Z,59.18
2022-10-30T12:26:30.650Z,60.31
2022-10-30T12:29:00.577Z,58.90
2022-10-30T12:31:35.922Z,57.12
2022-10-30T12:34:15.602Z,56.94
2022-10-30T12:36:50.400Z,55.92
2022-10-30T12:39:24.032Z,55.30
2022-10-30T12:41:59.251Z,55.57
2022-10-30T12:44:29.675Z,56.66
2022-10-30T12:47:03.768Z,55.88
2022-10-30T12:49:40.337Z,56.20
2022-10-30T12:52:15.745Z,56.52
2022-10-30T12:54:49.921Z,53.97
2022-10-30T12:57:20.760Z,53.96
2022-10-30T12:59:59.983Z,54.65
2022-10-30T13:02:38.237Z,53.79
2022-10-30T13:05:24.553Z,50.52
2022-10-30T13:08:02.407Z,51.82
2022-10-30T13:10:32.800Z,52.10
2022-10-30T13:13:05.270Z,50.66
2022-10-30T13:15:37.309Z,49.93
2022-10-30T13:18:15.332Z,49.09
2022-10-30T13:20:43.891Z,48.02
2022-10-30T13:23:16.881Z,46.91
2022-10-30T13:25:53.846Z,47.43
2022-10-30T13:28:26.250Z,49.94
2022-10-30T13:31:01.082Z,51.19
2022-10-30T13:33:36.043Z,51.61
2022-10-30T13:36:10.702Z,50.37
2022-10-30T13:38:46.579Z,49.15
2022-10-30T13:41:24.752Z,50.42
2022-10-30T13:44:02.266Z,50.02
2022-10-30T13:46:42.857Z,50.92
2022-10-30T13:49:25.554Z,51.79
2022-10-30T13:52:01.379Z,50.60
2022-10-30T13:54:32.157Z,49.96
2022-10-30T13:57:05.698Z,48.81
2022-10-30T13:59:50.031Z,47.45
2022-10-30T14:02:29.379Z,48.19
2022-10-30T14:05:01.700Z,47.59
2022-10-30T14:07:33.859Z,47.76
2022-10-30T14:10:06.815Z,47.55
2022-10-30T14:13:13.217Z,47.15
2022-10-30T14:15:42.942Z,48.92
2022-10-30T14:18:35.427Z,48.62
2022-10-30T14:21:43.684Z,48.19
2022-10-30T14:24:16.820Z,47.17
2022-10-30T14:26:53.130Z,48.36
2022-10-30T14:29:42.469Z,48.83
2022-10-30T14:32:41.143Z,49.67
2022-10-30T14:35:38.784Z,48.23
2022-10-30T14:38:35.493Z,49.16
2022-10-30T14:41:15.010Z,49.83
2022-10-30T14:43:56.007Z,50.67
2022-10-30T14:46:31.475Z,51.39
2022-10-30T14:49:05.995Z,51.35
2022-10-30T14:51:40.357Z,52.72
2022-10-30T14:54:18.545Z,53.53
2022-10-30T14:56:46.907Z,54.70
2022-10-30T14:59:31.995Z,56.35
2022-10-30T15:02:15.859Z,57.68
2022-10-30T15:05:03.814Z,58.13
2022-10-30T15:07:41.481Z,58.60
2022-10-30T15:10:17.002Z,60.23
2022-10-30T15:13:02.602Z,61.31
2022-10-30T15:15:30.636Z,61.88
2022-10-30T15:18:01.240Z,61.50
2022-10-30T15:20:30.755Z,62.03
2022-10-30T15:23:00.646Z,61.71
2022-10-30T15:25:31.910Z,63.33
2022-10-30T15:27:59.157Z,63.72
2022-10-30T15:30:27.172Z,64.05
2022-10-30T15:32:55.139Z,64.43
2022-10-30T15:35:23.453Z,65.39
2022-10-30T15:38:01.067Z,66.03
2022-10-30T15:40:29.046Z,67.89
2022-10-30T15:42:57.635Z,67.12
2022-10-30T15:45:29.881Z,68.39
2022-10-30T15:48:01.963Z,70.94
2022-10-30T15:50:28.711Z,72.05
2022-10-30T15:52:55.855Z,73.76
2022-10-30T15:55:28.167Z,74.13
2022-10-30T15:58:03.454Z,74.68
2022-10-30T16:00:33.167Z,76.27
2022-10-30T16:03:06.812Z,75.65
2022-10-30T16:05:34.150Z,76.71
2022-10-30T16:08:02.778Z,76.08
2022-10-30T16:10:33.507Z,75.43
2022-10-30T16:13:01.493Z,72.06
2022-10-30T16:15:30.097Z,69.27
2022-10-30T16:18:15.242Z,68.73
2022-10-30T16:20:44.149Z,69.93
2022-10-30T16:23:12.458Z,70.40
2022-10-30T16:25:45.890Z,71.41
2022-10-30T16:28:29.588Z,70.38
2022-10-30T16:30:57.747Z,70.51
2022-10-30T16:33:28.138Z,70.25
2022-10-30T16:35:56.078Z,69.07
2022-10-30T16:38:23.728Z,67.33
2022-10-30T16:40:51.249Z,68.55
2022-10-30T16:43:27.893Z,67.20
2022-10-30T16:45:55.837Z,65.93
2022-10-30T16:48:28.067Z,66.79
2022-10-30T16:51:02.637Z,65.78
2022-10-30T16:53:30.268Z,66.78
2022-10-30T16:55:58.811Z,67.42
2022-10-30T16:58:28.141Z,67.49
2022-10-30T17:00:57.447Z,67.45
2022-10-30T17:03:27.734Z,66.53
2022-10-30T17:06:00.817Z,66.94
2022-10-30T17:08:33.090Z,66.73
2022-10-30T17:11:01.581Z,65.89
2022-10-30T17:13:33.465Z,66.50
2022-10-30T17:16:20.381Z,66.35
2022-10-30T17:18:53.397Z,67.42
2022-10-30T17:21:23.511Z,66.98
2022-10-30T17:23:52.576Z,66.67
2022-10-30T17:26:19.085Z,66.12
2022-10-30T17:28:46.952Z,65.35
2022-10-30T17:31:22.170Z,64.99
2022-10-30T17:34:13.357Z,65.35
2022-10-30T17:36:40.324Z,65.42
2022-10-30T17:39:07.104Z,65.19
2022-10-30T17:41:34.044Z,65.22
2022-10-30T17:44:00.827Z,65.89
2022-10-30T17:46:27.510Z,65.76
2022-10-30T17:48:54.114Z,65.92
2022-10-30T17:51:22.049Z,66.09
2022-10-30T17:53:49.252Z,65.76
2022-10-30T17:56:19.713Z,66.24
2022-10-30T17:58:46.365Z,66.15
2022-10-30T18:01:15.637Z,66.67
2022-10-30T18:03:42.255Z,66.16
2022-10-30T18:06:15.817Z,66.48
2022-10-30T18:08:46.388Z,66.39
2022-10-30T18:11:17.650Z,67.03
2022-10-30T18:13:44.145Z,67.06
2022-10-30T18:16:12.549Z,67.24
2022-10-30T18:18:39.103Z,67.01
2022-10-30T18:21:06.141Z,67.22
2022-10-30T18:23:51.481Z,67.07
2022-10-30T18:26:22.870Z,67.02
2022-10-30T18:28:49.851Z,67.00
2022-10-30T18:31:18.929Z,66.66
2022-10-30T18:33:46.338Z,66.06
2022-10-30T18:36:14.167Z,65.77
2022-10-30T18:38:40.732Z,66.33
2022-10-30T18:41:13.607Z,66.04
2022-10-30T18:43:45.640Z,66.23
2022-10-30T18:46:14.366Z,65.68
2022-10-30T18:48:40.924Z,66.20
2022-10-30T18:51:15.324Z,66.98
2022-10-30T18:53:41.871Z,68.20
2022-10-30T18:56:09.920Z,68.76
2022-10-30T18:58:36.529Z,69.62
2022-10-30T19:01:11.867Z,70.27
2022-10-30T19:03:39.214Z,70.92
2022-10-30T19:06:09.620Z,71.06
2022-10-30T19:08:36.161Z,71.65
2022-10-30T19:11:02.734Z,72.32
2022-10-30T19:13:29.331Z,73.14
2022-10-30T19:16:00.308Z,73.83
2022-10-30T19:18:28.923Z,74.82
2022-10-30T19:21:04.485Z,75.32
2022-10-30T19:23:32.494Z,75.64
2022-10-30T19:25:59.123Z,75.36
2022-10-30T19:28:25.671Z,75.49
2022-10-30T19:30:52.193Z,75.31
2022-10-30T19:33:20.725Z,75.04
2022-10-30T19:35:54.602Z,75.27
2022-10-30T19:38:22.690Z,75.41
2022-10-30T19:40:50.069Z,75.21
2022-10-30T19:43:17.355Z,75.06
2022-10-30T19:45:43.986Z,74.85
2022-10-30T19:48:20.764Z,75.69
2022-10-30T19:50:51.470Z,75.08
2022-10-30T19:53:19.320Z,74.63
2022-10-30T19:55:47.015Z,75.07
2022-10-30T19:58:15.087Z,73.77
2022-10-30T20:00:43.294Z,73.88
2022-10-30T20:03:12.191Z,74.89
2022-10-30T20:05:40.590Z,75.16
2022-10-30T20:08:10.659Z,75.26
2022-10-30T20:10:40.905Z,75.57
2022-10-30T20:13:08.559Z,76.30
2022-10-30T20:15:35.309Z,76.37
2022-10-30T20:18:03.172Z,76.45
2022-10-30T20:20:32.506Z,76.06
2022-10-30T20:22:59.108Z,76.72
2022-10-30T20:25:27.146Z,77.02
2022-10-30T20:28:03.873Z,76.78
2022-10-30T20:30:33.365Z,77.21
2022-10-30T20:33:00.227Z,77.51
2022-10-30T20:35:27.193Z,77.05
2022-10-30T20:37:58.908Z,76.93
2022-10-30T20:40:26.207Z,77.43
2022-10-30T20:42:55.943Z,77.78
2022-10-30T20:45:27.945Z,77.88
2022-10-30T20:47:54.493Z,78.58
2022-10-30T20:50:21.403Z,78.63
2022-10-30T20:52:48.084Z,78.82
2022-10-30T20:55:14.919Z,79.11
2022-10-30T20:57:41.613Z,79.72
2022-10-30T21:00:11.789Z,79.10
2022-10-30T21:02:40.419Z,79.20
2022-10-30T21:05:17.359Z,79.30
2022-10-30T21:07:55.133Z,79.33
2022-10-30T21:10:24.431Z,79.38
2022-10-30T21:15:25.973Z,79.82
2022-10-30T21:17:53.935Z,80.41
2022-10-30T21:20:20.562Z,80.91
2022-10-30T21:22:47.194Z,82.09
2022-10-30T21:25:13.761Z,83.23
2022-10-30T21:27:40.294Z,84.45
2022-10-30T21:30:08.354Z,85.05
2022-10-30T21:32:34.932Z,86.17
2022-10-30T21:35:03.004Z,86.68
2022-10-30T21:37:33.583Z,87.09
2022-10-30T21:40:00.217Z,87.25
2022-10-30T21:44:58.702Z,86.21
2022-10-30T21:47:25.286Z,85.22
2022-10-30T21:49:51.928Z,84.61
2022-10-30T21:52:19.803Z,84.69
2022-10-30T21:54:46.311Z,84.41
2022-10-30T21:57:12.835Z,84.43
2022-10-30T21:59:39.464Z,84.81
2022-10-30T22:02:06.503Z,85.15
2022-10-30T22:04:33.318Z,85.52
2022-10-30T22:06:59.919Z,85.87
2022-10-30T22:09:27.969Z,85.97
2022-10-30T22:11:54.518Z,86.07
2022-10-30T22:14:21.032Z,85.96
2022-10-30T22:16:48.088Z,86.27
2022-10-30T22:19:14.743Z,87.06
2022-10-30T22:21:41.250Z,87.38
2022-10-30T22:24:08.237Z,88.49
2022-10-30T22:26:36.093Z,89.55
2022-10-30T22:29:02.733Z,90.35
2022-10-30T22:31:29.928Z,91.37
2022-10-30T22:33:58.313Z,91.81
2022-10-30T22:36:26.375Z,92.30
2022-10-30T22:38:58.454Z,92.86
2022-10-30T22:41:27.133Z,93.42
2022-10-30T22:43:56.960Z,93.96
2022-10-30T22:46:26.221Z,94.51
2022-10-30T22:48:52.861Z,95.10
2022-10-30T22:51:20.318Z,95.38
2022-10-30T22:53:48.382Z,95.60
2022-10-30T22:56:17.097Z,95.59
2022-10-30T22:58:44.373Z,96.25
2022-10-30T23:01:14.352Z,97.16
2022-10-30T23:03:41.436Z,97.57
2022-10-30T23:06:08.885Z,98.11
2022-10-30T23:08:36.088Z,97.99
2022-10-30T23:11:03.124Z,98.95
2022-10-30T23:13:30.573Z,98.62
2022-10-30T23:16:01.431Z,98.85
2022-10-30T23:18:30.208Z,99.07
2022-10-30T23:20:59.862Z,99.57
2022-10-30T23:23:26.439Z,99.72
2022-10-30T23:25:52.962Z,99.88
2022-10-30T23:28:19.533Z,100.00
2022-10-30T23:30:46.239Z,99.76
2022-10-30T23:33:13.047Z,100.00
2022-10-30T23:35:40.947Z,100.00
2022-10-30T23:38:07.471Z,100.00
2022-10-30T23:40:34.127Z,100.00
2022-10-30T23:43:01.006Z,100.00
2022-10-30T23:45:27.763Z,100.00
2022-10-30T23:47:54.306Z,100.00
2022-10-30T23:50:20.822Z,100.00
2022-10-30T23:52:48.740Z,100.00
2022-10-30T23:55:15.507Z,100.00
2022-10-30T23:57:42.042Z,100.00
